sensor_id;sensor_type;location;lat;lon;timestamp;P1;durP1;ratioP1;P2;durP2;ratioP2
55672;SDS011;41554;45.366;20.400;2023-01-05T00:00:03;62.20;;;32.08;;
55672;SDS011;41554;45.366;20.400;2023-01-05T00:02:30;54.58;;;36.90;;
55672;SDS011;41554;45.366;20.400;2023-01-05T00:04:55;65.57;;;43.90;;
55672;SDS011;41554;45.366;20.400;2023-01-05T00:07:21;97.40;;;53.05;;
55672;SDS011;41554;45.366;20.400;2023-01-05T00:09:47;104.68;;;77.63;;
55672;SDS011;41554;45.366;20.400;2023-01-05T00:12:12;121.70;;;88.50;;
55672;SDS011;41554;45.366;20.400;2023-01-05T00:14:57;141.05;;;106.47;;
55672;SDS011;41554;45.366;20.400;2023-01-05T00:17:31;122.45;;;98.20;;
55672;SDS011;41554;45.366;20.400;2023-01-05T00:20:17;128.30;;;98.05;;
55672;SDS011;41554;45.366;20.400;2023-01-05T00:23:03;98.90;;;66.53;;
55672;SDS011;41554;45.366;20.400;2023-01-05T00:25:30;67.28;;;46.72;;
55672;SDS011;41554;45.366;20.400;2023-01-05T00:27:58;69.72;;;41.90;;
55672;SDS011;41554;45.366;20.400;2023-01-05T00:30:26;84.82;;;49.60;;
55672;SDS011;41554;45.366;20.400;2023-01-05T00:32:57;122.82;;;95.75;;
55672;SDS011;41554;45.366;20.400;2023-01-05T00:35:23;148.48;;;110.88;;
55672;SDS011;41554;45.366;20.400;2023-01-05T00:37:49;144.98;;;96.93;;
55672;SDS011;41554;45.366;20.400;2023-01-05T00:40:17;135.18;;;102.40;;
55672;SDS011;41554;45.366;20.400;2023-01-05T00:42:44;129.60;;;93.65;;
55672;SDS011;41554;45.366;20.400;2023-01-05T00:45:10;99.57;;;68.65;;
55672;SDS011;41554;45.366;20.400;2023-01-05T00:47:38;103.22;;;71.10;;
55672;SDS011;41554;45.366;20.400;2023-01-05T00:50:04;56.10;;;40.80;;
55672;SDS011;41554;45.366;20.400;2023-01-05T00:52:30;63.10;;;45.60;;
55672;SDS011;41554;45.366;20.400;2023-01-05T00:54:56;66.45;;;49.50;;
55672;SDS011;41554;45.366;20.400;2023-01-05T00:57:22;91.75;;;60.22;;
55672;SDS011;41554;45.366;20.400;2023-01-05T00:59:47;121.47;;;84.03;;
55672;SDS011;41554;45.366;20.400;2023-01-05T01:02:13;116.57;;;81.93;;
55672;SDS011;41554;45.366;20.400;2023-01-05T01:04:39;121.40;;;85.05;;
55672;SDS011;41554;45.366;20.400;2023-01-05T01:07:05;86.88;;;50.53;;
55672;SDS011;41554;45.366;20.400;2023-01-05T01:09:31;76.57;;;60.08;;
55672;SDS011;41554;45.366;20.400;2023-01-05T01:11:57;52.78;;;34.60;;
55672;SDS011;41554;45.366;20.400;2023-01-05T01:14:24;62.67;;;33.22;;
55672;SDS011;41554;45.366;20.400;2023-01-05T01:16:50;35.13;;;24.40;;
55672;SDS011;41554;45.366;20.400;2023-01-05T01:19:20;35.25;;;24.90;;
55672;SDS011;41554;45.366;20.400;2023-01-05T01:21:48;37.95;;;24.52;;
55672;SDS011;41554;45.366;20.400;2023-01-05T01:24:14;40.55;;;24.33;;
55672;SDS011;41554;45.366;20.400;2023-01-05T01:26:42;33.85;;;26.95;;
55672;SDS011;41554;45.366;20.400;2023-01-05T01:29:08;36.72;;;23.05;;
55672;SDS011;41554;45.366;20.400;2023-01-05T01:31:34;35.80;;;26.65;;
55672;SDS011;41554;45.366;20.400;2023-01-05T01:34:01;45.90;;;24.02;;
55672;SDS011;41554;45.366;20.400;2023-01-05T01:36:27;32.53;;;24.73;;
55672;SDS011;41554;45.366;20.400;2023-01-05T01:38:53;35.42;;;24.75;;
55672;SDS011;41554;45.366;20.400;2023-01-05T01:41:18;51.03;;;25.42;;
55672;SDS011;41554;45.366;20.400;2023-01-05T01:46:14;88.13;;;23.10;;
55672;SDS011;41554;45.366;20.400;2023-01-05T01:48:44;37.22;;;23.58;;
55672;SDS011;41554;45.366;20.400;2023-01-05T01:51:23;34.50;;;24.02;;
55672;SDS011;41554;45.366;20.400;2023-01-05T01:53:54;25.00;;;19.92;;
55672;SDS011;41554;45.366;20.400;2023-01-05T01:56:28;49.90;;;20.10;;
55672;SDS011;41554;45.366;20.400;2023-01-05T01:58:58;29.73;;;19.15;;
55672;SDS011;41554;45.366;20.400;2023-01-05T02:01:24;40.30;;;20.58;;
55672;SDS011;41554;45.366;20.400;2023-01-05T02:03:49;32.90;;;21.77;;
55672;SDS011;41554;45.366;20.400;2023-01-05T02:06:15;31.52;;;22.27;;
55672;SDS011;41554;45.366;20.400;2023-01-05T02:08:41;41.22;;;22.33;;
55672;SDS011;41554;45.366;20.400;2023-01-05T02:22:00;40.63;;;26.65;;
55672;SDS011;41554;45.366;20.400;2023-01-05T02:27:26;40.65;;;29.67;;
55672;SDS011;41554;45.366;20.400;2023-01-05T02:33:02;47.75;;;32.17;;
55672;SDS011;41554;45.366;20.400;2023-01-05T02:35:53;55.38;;;34.40;;
55672;SDS011;41554;45.366;20.400;2023-01-05T02:38:38;78.15;;;52.78;;
55672;SDS011;41554;45.366;20.400;2023-01-05T02:43:50;46.03;;;32.22;;
55672;SDS011;41554;45.366;20.400;2023-01-05T02:46:16;102.70;;;35.10;;
55672;SDS011;41554;45.366;20.400;2023-01-05T02:48:42;40.65;;;25.65;;
55672;SDS011;41554;45.366;20.400;2023-01-05T02:51:14;65.78;;;29.10;;
55672;SDS011;41554;45.366;20.400;2023-01-05T02:53:46;49.45;;;28.42;;
55672;SDS011;41554;45.366;20.400;2023-01-05T03:01:26;35.05;;;21.65;;
55672;SDS011;41554;45.366;20.400;2023-01-05T03:03:57;34.38;;;21.38;;
55672;SDS011;41554;45.366;20.400;2023-01-05T03:06:28;60.00;;;21.42;;
55672;SDS011;41554;45.366;20.400;2023-01-05T03:08:56;32.15;;;22.83;;
55672;SDS011;41554;45.366;20.400;2023-01-05T03:11:24;34.60;;;22.45;;
55672;SDS011;41554;45.366;20.400;2023-01-05T03:14:17;32.10;;;24.42;;
55672;SDS011;41554;45.366;20.400;2023-01-05T03:16:45;32.97;;;24.42;;
55672;SDS011;41554;45.366;20.400;2023-01-05T03:19:12;57.90;;;31.60;;
55672;SDS011;41554;45.366;20.400;2023-01-05T03:21:58;45.90;;;28.30;;
55672;SDS011;41554;45.366;20.400;2023-01-05T03:24:44;39.63;;;21.08;;
55672;SDS011;41554;45.366;20.400;2023-01-05T03:27:29;30.30;;;19.15;;
55672;SDS011;41554;45.366;20.400;2023-01-05T03:30:14;33.97;;;21.45;;
55672;SDS011;41554;45.366;20.400;2023-01-05T03:33:01;25.13;;;18.30;;
55672;SDS011;41554;45.366;20.400;2023-01-05T03:35:48;29.92;;;19.42;;
55672;SDS011;41554;45.366;20.400;2023-01-05T03:40:45;52.05;;;22.65;;
55672;SDS011;41554;45.366;20.400;2023-01-05T03:43:14;34.90;;;21.20;;
55672;SDS011;41554;45.366;20.400;2023-01-05T03:45:41;44.00;;;26.98;;
55672;SDS011;41554;45.366;20.400;2023-01-05T03:48:08;80.75;;;40.13;;
55672;SDS011;41554;45.366;20.400;2023-01-05T03:50:34;32.33;;;24.52;;
55672;SDS011;41554;45.366;20.400;2023-01-05T03:53:00;66.57;;;26.02;;
55672;SDS011;41554;45.366;20.400;2023-01-05T03:55:26;45.22;;;28.33;;
55672;SDS011;41554;45.366;20.400;2023-01-05T03:57:52;49.28;;;29.48;;
55672;SDS011;41554;45.366;20.400;2023-01-05T04:00:19;70.22;;;39.83;;
55672;SDS011;41554;45.366;20.400;2023-01-05T04:02:45;43.17;;;26.38;;
55672;SDS011;41554;45.366;20.400;2023-01-05T04:05:11;32.50;;;25.60;;
55672;SDS011;41554;45.366;20.400;2023-01-05T04:07:37;31.80;;;22.90;;
55672;SDS011;41554;45.366;20.400;2023-01-05T04:10:03;50.72;;;26.33;;
55672;SDS011;41554;45.366;20.400;2023-01-05T04:12:30;34.38;;;22.30;;
55672;SDS011;41554;45.366;20.400;2023-01-05T04:14:56;47.08;;;22.27;;
55672;SDS011;41554;45.366;20.400;2023-01-05T04:17:22;42.75;;;25.10;;
55672;SDS011;41554;45.366;20.400;2023-01-05T04:19:48;43.38;;;24.42;;
55672;SDS011;41554;45.366;20.400;2023-01-05T04:22:14;41.47;;;26.20;;
55672;SDS011;41554;45.366;20.400;2023-01-05T04:24:40;45.25;;;20.80;;
55672;SDS011;41554;45.366;20.400;2023-01-05T04:27:06;41.97;;;21.02;;
55672;SDS011;41554;45.366;20.400;2023-01-05T04:29:32;38.17;;;21.00;;
55672;SDS011;41554;45.366;20.400;2023-01-05T04:31:58;32.50;;;20.88;;
55672;SDS011;41554;45.366;20.400;2023-01-05T04:34:24;39.10;;;19.67;;
55672;SDS011;41554;45.366;20.400;2023-01-05T04:36:50;57.45;;;21.83;;
55672;SDS011;41554;45.366;20.400;2023-01-05T04:39:16;39.05;;;20.15;;
55672;SDS011;41554;45.366;20.400;2023-01-05T04:41:42;41.33;;;22.95;;
55672;SDS011;41554;45.366;20.400;2023-01-05T04:44:08;36.47;;;20.13;;
55672;SDS011;41554;45.366;20.400;2023-01-05T04:46:34;33.13;;;22.77;;
55672;SDS011;41554;45.366;20.400;2023-01-05T04:49:01;54.92;;;23.27;;
55672;SDS011;41554;45.366;20.400;2023-01-05T04:51:27;63.67;;;24.38;;
55672;SDS011;41554;45.366;20.400;2023-01-05T04:53:53;50.03;;;23.15;;
55672;SDS011;41554;45.366;20.400;2023-01-05T04:56:19;39.22;;;23.73;;
55672;SDS011;41554;45.366;20.400;2023-01-05T04:58:45;30.63;;;20.88;;
55672;SDS011;41554;45.366;20.400;2023-01-05T05:01:11;28.23;;;21.13;;
55672;SDS011;41554;45.366;20.400;2023-01-05T05:03:37;27.40;;;20.15;;
55672;SDS011;41554;45.366;20.400;2023-01-05T05:06:03;32.75;;;22.80;;
55672;SDS011;41554;45.366;20.400;2023-01-05T05:08:29;43.63;;;20.98;;
55672;SDS011;41554;45.366;20.400;2023-01-05T05:10:55;49.22;;;23.08;;
55672;SDS011;41554;45.366;20.400;2023-01-05T05:13:21;39.65;;;24.83;;
55672;SDS011;41554;45.366;20.400;2023-01-05T05:15:47;70.32;;;34.08;;
55672;SDS011;41554;45.366;20.400;2023-01-05T05:18:13;56.53;;;39.95;;
55672;SDS011;41554;45.366;20.400;2023-01-05T05:20:40;54.63;;;33.38;;
55672;SDS011;41554;45.366;20.400;2023-01-05T05:23:07;48.47;;;30.98;;
55672;SDS011;41554;45.366;20.400;2023-01-05T05:25:33;70.88;;;32.22;;
55672;SDS011;41554;45.366;20.400;2023-01-05T05:27:59;56.72;;;24.50;;
55672;SDS011;41554;45.366;20.400;2023-01-05T05:30:25;28.23;;;20.52;;
55672;SDS011;41554;45.366;20.400;2023-01-05T05:32:51;37.72;;;17.90;;
55672;SDS011;41554;45.366;20.400;2023-01-05T05:35:17;63.63;;;39.03;;
55672;SDS011;41554;45.366;20.400;2023-01-05T05:37:43;41.60;;;29.55;;
55672;SDS011;41554;45.366;20.400;2023-01-05T05:40:10;31.08;;;24.52;;
55672;SDS011;41554;45.366;20.400;2023-01-05T05:42:36;83.88;;;21.75;;
55672;SDS011;41554;45.366;20.400;2023-01-05T05:45:02;28.67;;;22.25;;
55672;SDS011;41554;45.366;20.400;2023-01-05T05:47:28;31.95;;;24.23;;
55672;SDS011;41554;45.366;20.400;2023-01-05T05:49:54;34.88;;;24.70;;
55672;SDS011;41554;45.366;20.400;2023-01-05T05:52:20;30.38;;;20.55;;
55672;SDS011;41554;45.366;20.400;2023-01-05T05:54:47;33.17;;;24.02;;
55672;SDS011;41554;45.366;20.400;2023-01-05T05:57:13;37.80;;;24.40;;
55672;SDS011;41554;45.366;20.400;2023-01-05T05:59:39;38.03;;;26.77;;
55672;SDS011;41554;45.366;20.400;2023-01-05T06:02:05;39.08;;;21.52;;
55672;SDS011;41554;45.366;20.400;2023-01-05T06:04:31;49.60;;;32.20;;
55672;SDS011;41554;45.366;20.400;2023-01-05T06:06:57;75.97;;;41.70;;
55672;SDS011;41554;45.366;20.400;2023-01-05T06:09:23;69.00;;;45.60;;
55672;SDS011;41554;45.366;20.400;2023-01-05T06:11:49;97.35;;;68.97;;
55672;SDS011;41554;45.366;20.400;2023-01-05T06:14:15;81.45;;;61.10;;
55672;SDS011;41554;45.366;20.400;2023-01-05T06:16:41;103.93;;;54.13;;
55672;SDS011;41554;45.366;20.400;2023-01-05T06:19:08;115.03;;;85.43;;
55672;SDS011;41554;45.366;20.400;2023-01-05T06:21:34;93.78;;;67.13;;
55672;SDS011;41554;45.366;20.400;2023-01-05T06:24:00;89.07;;;66.60;;
55672;SDS011;41554;45.366;20.400;2023-01-05T06:26:26;110.03;;;82.57;;
55672;SDS011;41554;45.366;20.400;2023-01-05T06:28:52;131.00;;;92.93;;
55672;SDS011;41554;45.366;20.400;2023-01-05T06:31:18;115.43;;;82.45;;
55672;SDS011;41554;45.366;20.400;2023-01-05T06:33:44;125.53;;;98.38;;
55672;SDS011;41554;45.366;20.400;2023-01-05T06:36:10;108.35;;;83.80;;
55672;SDS011;41554;45.366;20.400;2023-01-05T06:38:36;110.60;;;72.28;;
55672;SDS011;41554;45.366;20.400;2023-01-05T06:41:02;113.43;;;84.97;;
55672;SDS011;41554;45.366;20.400;2023-01-05T06:43:28;77.45;;;51.95;;
55672;SDS011;41554;45.366;20.400;2023-01-05T06:45:54;72.40;;;37.90;;
55672;SDS011;41554;45.366;20.400;2023-01-05T06:48:20;44.55;;;34.53;;
55672;SDS011;41554;45.366;20.400;2023-01-05T06:50:46;58.10;;;31.10;;
55672;SDS011;41554;45.366;20.400;2023-01-05T06:53:13;36.70;;;23.95;;
55672;SDS011;41554;45.366;20.400;2023-01-05T06:55:39;45.00;;;23.05;;
55672;SDS011;41554;45.366;20.400;2023-01-05T06:58:05;35.42;;;24.92;;
55672;SDS011;41554;45.366;20.400;2023-01-05T07:00:31;41.10;;;23.83;;
55672;SDS011;41554;45.366;20.400;2023-01-05T07:02:57;33.10;;;24.77;;
55672;SDS011;41554;45.366;20.400;2023-01-05T07:05:23;40.25;;;26.60;;
55672;SDS011;41554;45.366;20.400;2023-01-05T07:07:49;35.72;;;23.65;;
55672;SDS011;41554;45.366;20.400;2023-01-05T07:10:15;40.65;;;23.17;;
55672;SDS011;41554;45.366;20.400;2023-01-05T07:12:41;52.97;;;22.38;;
55672;SDS011;41554;45.366;20.400;2023-01-05T07:15:08;35.35;;;23.65;;
55672;SDS011;41554;45.366;20.400;2023-01-05T07:17:34;35.05;;;24.48;;
55672;SDS011;41554;45.366;20.400;2023-01-05T07:20:03;34.17;;;22.45;;
55672;SDS011;41554;45.366;20.400;2023-01-05T07:22:30;34.92;;;25.08;;
55672;SDS011;41554;45.366;20.400;2023-01-05T07:24:56;28.60;;;22.95;;
55672;SDS011;41554;45.366;20.400;2023-01-05T07:27:23;30.15;;;21.48;;
55672;SDS011;41554;45.366;20.400;2023-01-05T07:29:49;32.10;;;23.35;;
55672;SDS011;41554;45.366;20.400;2023-01-05T07:32:15;43.65;;;25.45;;
55672;SDS011;41554;45.366;20.400;2023-01-05T07:34:41;31.15;;;22.77;;
55672;SDS011;41554;45.366;20.400;2023-01-05T07:37:07;35.15;;;24.40;;
55672;SDS011;41554;45.366;20.400;2023-01-05T07:39:34;36.03;;;24.60;;
55672;SDS011;41554;45.366;20.400;2023-01-05T07:42:00;37.38;;;24.73;;
55672;SDS011;41554;45.366;20.400;2023-01-05T07:44:26;32.13;;;22.48;;
55672;SDS011;41554;45.366;20.400;2023-01-05T07:46:53;34.90;;;26.13;;
55672;SDS011;41554;45.366;20.400;2023-01-05T07:49:19;38.95;;;23.65;;
55672;SDS011;41554;45.366;20.400;2023-01-05T07:51:45;36.08;;;25.58;;
55672;SDS011;41554;45.366;20.400;2023-01-05T07:54:11;31.98;;;24.30;;
55672;SDS011;41554;45.366;20.400;2023-01-05T07:56:37;40.33;;;24.30;;
55672;SDS011;41554;45.366;20.400;2023-01-05T07:59:03;29.13;;;23.15;;
55672;SDS011;41554;45.366;20.400;2023-01-05T08:01:29;37.33;;;26.17;;
55672;SDS011;41554;45.366;20.400;2023-01-05T08:03:54;30.55;;;22.08;;
55672;SDS011;41554;45.366;20.400;2023-01-05T08:06:20;34.53;;;23.50;;
55672;SDS011;41554;45.366;20.400;2023-01-05T08:08:47;35.17;;;23.50;;
55672;SDS011;41554;45.366;20.400;2023-01-05T08:11:14;39.97;;;26.27;;
55672;SDS011;41554;45.366;20.400;2023-01-05T08:13:41;37.75;;;23.67;;
55672;SDS011;41554;45.366;20.400;2023-01-05T08:16:27;36.38;;;21.70;;
55672;SDS011;41554;45.366;20.400;2023-01-05T08:18:54;37.15;;;23.73;;
55672;SDS011;41554;45.366;20.400;2023-01-05T08:21:20;37.20;;;23.65;;
55672;SDS011;41554;45.366;20.400;2023-01-05T08:23:46;33.97;;;20.98;;
55672;SDS011;41554;45.366;20.400;2023-01-05T08:26:15;40.97;;;23.73;;
55672;SDS011;41554;45.366;20.400;2023-01-05T08:28:42;28.70;;;21.20;;
55672;SDS011;41554;45.366;20.400;2023-01-05T08:31:18;28.67;;;21.17;;
55672;SDS011;41554;45.366;20.400;2023-01-05T08:33:45;33.88;;;20.77;;
55672;SDS011;41554;45.366;20.400;2023-01-05T08:36:18;34.58;;;22.77;;
55672;SDS011;41554;45.366;20.400;2023-01-05T08:38:45;25.10;;;20.42;;
55672;SDS011;41554;45.366;20.400;2023-01-05T08:41:18;44.78;;;24.75;;
55672;SDS011;41554;45.366;20.400;2023-01-05T08:43:47;46.35;;;37.13;;
55672;SDS011;41554;45.366;20.400;2023-01-05T08:46:14;29.50;;;22.98;;
55672;SDS011;41554;45.366;20.400;2023-01-05T08:48:40;31.52;;;20.55;;
55672;SDS011;41554;45.366;20.400;2023-01-05T08:51:06;28.60;;;19.55;;
55672;SDS011;41554;45.366;20.400;2023-01-05T08:53:33;25.42;;;19.80;;
55672;SDS011;41554;45.366;20.400;2023-01-05T08:55:59;36.17;;;20.73;;
55672;SDS011;41554;45.366;20.400;2023-01-05T08:58:26;30.67;;;23.13;;
55672;SDS011;41554;45.366;20.400;2023-01-05T09:00:52;45.03;;;26.30;;
55672;SDS011;41554;45.366;20.400;2023-01-05T09:03:18;32.55;;;21.95;;
55672;SDS011;41554;45.366;20.400;2023-01-05T09:05:44;31.50;;;21.05;;
55672;SDS011;41554;45.366;20.400;2023-01-05T09:08:10;31.98;;;22.38;;
55672;SDS011;41554;45.366;20.400;2023-01-05T09:10:36;33.88;;;21.15;;
55672;SDS011;41554;45.366;20.400;2023-01-05T09:13:02;37.28;;;24.15;;
55672;SDS011;41554;45.366;20.400;2023-01-05T09:15:28;33.72;;;24.23;;
55672;SDS011;41554;45.366;20.400;2023-01-05T09:17:54;31.90;;;24.33;;
55672;SDS011;41554;45.366;20.400;2023-01-05T09:20:20;32.25;;;20.17;;
55672;SDS011;41554;45.366;20.400;2023-01-05T09:22:46;38.25;;;28.80;;
55672;SDS011;41554;45.366;20.400;2023-01-05T09:25:12;50.08;;;30.98;;
55672;SDS011;41554;45.366;20.400;2023-01-05T09:27:39;106.88;;;73.70;;
55672;SDS011;41554;45.366;20.400;2023-01-05T09:30:05;74.15;;;60.40;;
55672;SDS011;41554;45.366;20.400;2023-01-05T09:32:32;49.55;;;29.45;;
55672;SDS011;41554;45.366;20.400;2023-01-05T09:34:58;34.75;;;21.90;;
55672;SDS011;41554;45.366;20.400;2023-01-05T09:37:24;39.58;;;20.45;;
55672;SDS011;41554;45.366;20.400;2023-01-05T09:39:50;29.30;;;22.92;;
55672;SDS011;41554;45.366;20.400;2023-01-05T09:42:17;39.50;;;20.30;;
55672;SDS011;41554;45.366;20.400;2023-01-05T09:44:45;30.00;;;21.42;;
55672;SDS011;41554;45.366;20.400;2023-01-05T09:47:26;22.25;;;18.10;;
55672;SDS011;41554;45.366;20.400;2023-01-05T09:49:54;28.35;;;21.08;;
55672;SDS011;41554;45.366;20.400;2023-01-05T09:52:22;24.85;;;17.60;;
55672;SDS011;41554;45.366;20.400;2023-01-05T09:54:48;29.33;;;19.95;;
55672;SDS011;41554;45.366;20.400;2023-01-05T09:57:19;35.10;;;22.65;;
55672;SDS011;41554;45.366;20.400;2023-01-05T09:59:47;39.78;;;27.65;;
55672;SDS011;41554;45.366;20.400;2023-01-05T10:02:30;35.42;;;23.00;;
55672;SDS011;41554;45.366;20.400;2023-01-05T10:04:57;35.50;;;23.55;;
55672;SDS011;41554;45.366;20.400;2023-01-05T10:07:36;27.05;;;21.58;;
55672;SDS011;41554;45.366;20.400;2023-01-05T10:10:08;34.53;;;24.13;;
55672;SDS011;41554;45.366;20.400;2023-01-05T10:15:24;32.80;;;23.13;;
55672;SDS011;41554;45.366;20.400;2023-01-05T10:17:52;38.28;;;25.55;;
55672;SDS011;41554;45.366;20.400;2023-01-05T10:25:43;31.23;;;20.52;;
55672;SDS011;41554;45.366;20.400;2023-01-05T10:28:27;28.02;;;20.67;;
55672;SDS011;41554;45.366;20.400;2023-01-05T10:30:57;29.63;;;21.55;;
55672;SDS011;41554;45.366;20.400;2023-01-05T10:46:20;30.85;;;19.27;;
55672;SDS011;41554;45.366;20.400;2023-01-05T10:48:46;27.70;;;21.65;;
55672;SDS011;41554;45.366;20.400;2023-01-05T10:51:12;33.63;;;20.05;;
55672;SDS011;41554;45.366;20.400;2023-01-05T10:53:39;28.30;;;19.55;;
55672;SDS011;41554;45.366;20.400;2023-01-05T10:58:33;31.27;;;19.17;;
55672;SDS011;41554;45.366;20.400;2023-01-05T11:03:36;33.53;;;22.38;;
55672;SDS011;41554;45.366;20.400;2023-01-05T11:06:03;30.33;;;22.50;;
55672;SDS011;41554;45.366;20.400;2023-01-05T11:08:30;29.10;;;20.77;;
55672;SDS011;41554;45.366;20.400;2023-01-05T11:11:03;29.77;;;18.50;;
55672;SDS011;41554;45.366;20.400;2023-01-05T11:13:34;27.98;;;19.95;;
55672;SDS011;41554;45.366;20.400;2023-01-05T11:16:05;25.45;;;21.10;;
55672;SDS011;41554;45.366;20.400;2023-01-05T11:18:34;29.52;;;21.63;;
55672;SDS011;41554;45.366;20.400;2023-01-05T11:21:43;32.63;;;21.25;;
55672;SDS011;41554;45.366;20.400;2023-01-05T11:23:53;31.42;;;17.88;;
55672;SDS011;41554;45.366;20.400;2023-01-05T11:26:21;22.75;;;14.30;;
55672;SDS011;41554;45.366;20.400;2023-01-05T11:29:01;26.73;;;18.48;;
55672;SDS011;41554;45.366;20.400;2023-01-05T11:31:37;27.63;;;19.73;;
55672;SDS011;41554;45.366;20.400;2023-01-05T11:36:38;23.38;;;16.38;;
55672;SDS011;41554;45.366;20.400;2023-01-05T11:39:05;25.08;;;15.98;;
55672;SDS011;41554;45.366;20.400;2023-01-05T11:41:31;25.45;;;15.25;;
55672;SDS011;41554;45.366;20.400;2023-01-05T11:43:58;18.73;;;16.38;;
55672;SDS011;41554;45.366;20.400;2023-01-05T11:46:37;23.40;;;16.17;;
55672;SDS011;41554;45.366;20.400;2023-01-05T11:49:04;24.05;;;15.48;;
55672;SDS011;41554;45.366;20.400;2023-01-05T11:51:32;25.48;;;16.33;;
55672;SDS011;41554;45.366;20.400;2023-01-05T11:53:58;29.92;;;17.92;;
55672;SDS011;41554;45.366;20.400;2023-01-05T11:56:25;25.33;;;16.08;;
55672;SDS011;41554;45.366;20.400;2023-01-05T11:58:54;20.73;;;15.15;;
55672;SDS011;41554;45.366;20.400;2023-01-05T12:04:00;20.80;;;12.90;;
55672;SDS011;41554;45.366;20.400;2023-01-05T12:11:30;62.38;;;34.63;;
55672;SDS011;41554;45.366;20.400;2023-01-05T12:16:39;23.27;;;16.42;;
55672;SDS011;41554;45.366;20.400;2023-01-05T12:21:54;43.65;;;28.25;;
55672;SDS011;41554;45.366;20.400;2023-01-05T12:29:24;21.45;;;14.90;;
55672;SDS011;41554;45.366;20.400;2023-01-05T12:50:51;27.08;;;16.33;;
55672;SDS011;41554;45.366;20.400;2023-01-05T12:53:24;28.05;;;16.02;;
55672;SDS011;41554;45.366;20.400;2023-01-05T12:55:54;15.85;;;13.23;;
55672;SDS011;41554;45.366;20.400;2023-01-05T12:58:23;24.88;;;16.52;;
55672;SDS011;41554;45.366;20.400;2023-01-05T13:00:50;31.92;;;20.00;;
55672;SDS011;41554;45.366;20.400;2023-01-05T13:03:33;26.45;;;16.88;;
55672;SDS011;41554;45.366;20.400;2023-01-05T13:08:36;32.03;;;21.27;;
55672;SDS011;41554;45.366;20.400;2023-01-05T13:13:30;31.42;;;21.08;;
55672;SDS011;41554;45.366;20.400;2023-01-05T13:15:59;35.15;;;23.38;;
55672;SDS011;41554;45.366;20.400;2023-01-05T13:18:26;23.73;;;17.17;;
55672;SDS011;41554;45.366;20.400;2023-01-05T13:20:58;30.67;;;19.08;;
55672;SDS011;41554;45.366;20.400;2023-01-05T13:23:30;35.78;;;23.17;;
55672;SDS011;41554;45.366;20.400;2023-01-05T13:25:57;32.67;;;23.23;;
55672;SDS011;41554;45.366;20.400;2023-01-05T13:28:25;39.97;;;23.38;;
55672;SDS011;41554;45.366;20.400;2023-01-05T13:33:44;58.55;;;33.90;;
55672;SDS011;41554;45.366;20.400;2023-01-05T13:41:36;48.03;;;24.45;;
55672;SDS011;41554;45.366;20.400;2023-01-05T13:49:25;54.05;;;33.90;;
55672;SDS011;41554;45.366;20.400;2023-01-05T13:57:01;43.63;;;26.10;;
55672;SDS011;41554;45.366;20.400;2023-01-05T13:59:32;43.45;;;29.17;;
55672;SDS011;41554;45.366;20.400;2023-01-05T14:02:00;35.75;;;26.65;;
55672;SDS011;41554;45.366;20.400;2023-01-05T14:04:30;34.45;;;25.00;;
55672;SDS011;41554;45.366;20.400;2023-01-05T14:07:04;26.45;;;22.35;;
55672;SDS011;41554;45.366;20.400;2023-01-05T14:09:48;34.88;;;24.77;;
55672;SDS011;41554;45.366;20.400;2023-01-05T14:20:29;32.50;;;23.90;;
55672;SDS011;41554;45.366;20.400;2023-01-05T14:22:55;23.98;;;17.67;;
55672;SDS011;41554;45.366;20.400;2023-01-05T14:30:44;26.67;;;17.75;;
55672;SDS011;41554;45.366;20.400;2023-01-05T14:33:10;26.45;;;20.38;;
55672;SDS011;41554;45.366;20.400;2023-01-05T14:35:36;27.85;;;17.00;;
55672;SDS011;41554;45.366;20.400;2023-01-05T14:40:38;24.88;;;16.70;;
55672;SDS011;41554;45.366;20.400;2023-01-05T14:43:28;32.63;;;20.30;;
55672;SDS011;41554;45.366;20.400;2023-01-05T14:46:00;34.28;;;20.40;;
55672;SDS011;41554;45.366;20.400;2023-01-05T14:48:31;30.02;;;23.95;;
55672;SDS011;41554;45.366;20.400;2023-01-05T14:53:43;26.60;;;21.85;;
55672;SDS011;41554;45.366;20.400;2023-01-05T15:09:21;45.78;;;26.52;;
55672;SDS011;41554;45.366;20.400;2023-01-05T15:25:02;31.25;;;20.40;;
55672;SDS011;41554;45.366;20.400;2023-01-05T15:32:35;103.47;;;65.82;;
55672;SDS011;41554;45.366;20.400;2023-01-05T15:37:38;79.38;;;53.25;;
55672;SDS011;41554;45.366;20.400;2023-01-05T15:40:24;132.63;;;90.47;;
55672;SDS011;41554;45.366;20.400;2023-01-05T15:42:52;200.32;;;138.88;;
55672;SDS011;41554;45.366;20.400;2023-01-05T15:45:26;129.95;;;94.07;;
55672;SDS011;41554;45.366;20.400;2023-01-05T15:47:53;50.45;;;32.17;;
55672;SDS011;41554;45.366;20.400;2023-01-05T15:50:20;40.15;;;27.88;;
55672;SDS011;41554;45.366;20.400;2023-01-05T15:52:52;30.05;;;21.80;;
55672;SDS011;41554;45.366;20.400;2023-01-05T15:55:18;27.67;;;19.08;;
55672;SDS011;41554;45.366;20.400;2023-01-05T15:57:51;30.65;;;19.73;;
55672;SDS011;41554;45.366;20.400;2023-01-05T16:00:20;36.97;;;25.73;;
55672;SDS011;41554;45.366;20.400;2023-01-05T16:02:46;35.47;;;26.27;;
55672;SDS011;41554;45.366;20.400;2023-01-05T16:05:13;49.88;;;34.97;;
55672;SDS011;41554;45.366;20.400;2023-01-05T16:07:49;42.75;;;26.05;;
55672;SDS011;41554;45.366;20.400;2023-01-05T16:13:10;25.98;;;21.73;;
55672;SDS011;41554;45.366;20.400;2023-01-05T16:15:37;36.05;;;22.48;;
55672;SDS011;41554;45.366;20.400;2023-01-05T16:18:06;31.85;;;22.27;;
55672;SDS011;41554;45.366;20.400;2023-01-05T16:20:33;29.83;;;23.58;;
55672;SDS011;41554;45.366;20.400;2023-01-05T16:23:05;33.17;;;22.13;;
55672;SDS011;41554;45.366;20.400;2023-01-05T16:25:42;25.60;;;21.02;;
55672;SDS011;41554;45.366;20.400;2023-01-05T16:28:16;24.75;;;19.08;;
55672;SDS011;41554;45.366;20.400;2023-01-05T16:30:44;25.70;;;18.98;;
55672;SDS011;41554;45.366;20.400;2023-01-05T16:35:44;25.80;;;17.92;;
55672;SDS011;41554;45.366;20.400;2023-01-05T16:40:55;27.42;;;22.70;;
55672;SDS011;41554;45.366;20.400;2023-01-05T16:51:47;21.02;;;17.00;;
55672;SDS011;41554;45.366;20.400;2023-01-05T16:54:18;24.80;;;19.00;;
55672;SDS011;41554;45.366;20.400;2023-01-05T17:01:58;25.25;;;16.85;;
55672;SDS011;41554;45.366;20.400;2023-01-05T17:04:25;38.17;;;22.58;;
55672;SDS011;41554;45.366;20.400;2023-01-05T17:06:51;28.42;;;18.42;;
55672;SDS011;41554;45.366;20.400;2023-01-05T17:09:19;31.50;;;20.27;;
55672;SDS011;41554;45.366;20.400;2023-01-05T17:11:45;34.03;;;19.58;;
55672;SDS011;41554;45.366;20.400;2023-01-05T17:14:12;33.20;;;19.30;;
55672;SDS011;41554;45.366;20.400;2023-01-05T17:16:38;29.10;;;19.58;;
55672;SDS011;41554;45.366;20.400;2023-01-05T17:19:14;27.38;;;22.02;;
55672;SDS011;41554;45.366;20.400;2023-01-05T17:21:42;36.97;;;25.95;;
55672;SDS011;41554;45.366;20.400;2023-01-05T17:24:09;36.50;;;26.10;;
55672;SDS011;41554;45.366;20.400;2023-01-05T17:26:36;36.30;;;26.27;;
55672;SDS011;41554;45.366;20.400;2023-01-05T17:29:03;37.13;;;25.60;;